createdAt,value
2022-12-15T00:00:55.945Z,-1.60
2022-12-15T00:03:47.002Z,-1.60
2022-12-15T00:06:33.080Z,-1.50
2022-12-15T00:09:20.736Z,-1.50
2022-12-15T00:12:06.824Z,-1.40
2022-12-15T00:14:53.796Z,-1.40
2022-12-15T00:17:39.750Z,-1.50
2022-12-15T00:20:26.594Z,-1.50
2022-12-15T00:23:15.663Z,-1.50
2022-12-15T00:26:05.619Z,-1.50
2022-12-15T00:28:57.593Z,-1.40
2022-12-15T00:31:47.762Z,-1.30
2022-12-15T00:34:36.453Z,-1.30
2022-12-15T00:37:28.508Z,-1.30
2022-12-15T00:40:08.070Z,-1.30
2022-12-15T00:42:42.296Z,-1.30
2022-12-15T00:45:15.787Z,-1.40
2022-12-15T00:47:55.045Z,-1.30
2022-12-15T00:50:41.156Z,-1.30
2022-12-15T00:53:28.439Z,-1.30
2022-12-15T00:56:17.886Z,-1.20
2022-12-15T00:59:04.492Z,-1.20
2022-12-15T01:01:52.811Z,-1.20
2022-12-15T01:04:41.741Z,-1.30
2022-12-15T01:07:28.929Z,-1.30
2022-12-15T01:10:17.940Z,-1.20
2022-12-15T01:13:08.890Z,-1.10
2022-12-15T01:15:58.758Z,-1.10
2022-12-15T01:18:49.439Z,-1.10
2022-12-15T01:21:24.957Z,-1.40
2022-12-15T01:23:59.370Z,-1.50
2022-12-15T01:26:27.385Z,-1.40
2022-12-15T01:28:57.159Z,-1.40
2022-12-15T01:31:27.011Z,-1.30
2022-12-15T01:34:01.321Z,-1.30
2022-12-15T01:36:30.253Z,-1.20
2022-12-15T01:39:02.021Z,-1.20
2022-12-15T01:41:32.866Z,-1.30
2022-12-15T01:44:24.462Z,-1.40
2022-12-15T01:47:00.625Z,-1.40
2022-12-15T01:49:32.639Z,-1.40
2022-12-15T01:52:06.539Z,-1.40
2022-12-15T01:54:48.441Z,-1.50
2022-12-15T01:57:27.066Z,-1.50
2022-12-15T02:00:00.269Z,-1.50
2022-12-15T02:02:39.776Z,-1.40
2022-12-15T02:05:08.748Z,-1.50
2022-12-15T02:07:36.359Z,-1.50
2022-12-15T02:10:11.153Z,-1.60
2022-12-15T02:13:04.480Z,-1.60
2022-12-15T02:15:48.308Z,-1.60
2022-12-15T02:18:38.428Z,-1.40
2022-12-15T02:21:29.877Z,-1.50
2022-12-15T02:24:26.811Z,-1.40
2022-12-15T02:27:03.073Z,-1.30
2022-12-15T02:29:41.215Z,-1.40
2022-12-15T02:32:31.804Z,-1.40
2022-12-15T02:35:05.041Z,-1.50
2022-12-15T02:37:38.680Z,-1.50
2022-12-15T02:40:12.424Z,-1.60
2022-12-15T02:42:52.368Z,-1.50
2022-12-15T02:45:35.468Z,-1.50
2022-12-15T02:48:28.886Z,-1.70
2022-12-15T02:51:11.524Z,-1.70
2022-12-15T02:53:48.900Z,-1.70
2022-12-15T02:56:30.964Z,-1.60
2022-12-15T02:59:25.664Z,-1.60
2022-12-15T03:02:01.574Z,-1.50
2022-12-15T03:04:34.024Z,-1.50
2022-12-15T03:07:08.705Z,-1.40
2022-12-15T03:09:37.179Z,-1.50
2022-12-15T03:12:10.089Z,-1.50
2022-12-15T03:14:37.798Z,-1.60
2022-12-15T03:17:13.749Z,-1.60
2022-12-15T03:19:46.876Z,-1.70
2022-12-15T03:22:21.281Z,-1.80
2022-12-15T03:24:49.874Z,-1.80
2022-12-15T03:27:19.033Z,-1.70
2022-12-15T03:29:54.737Z,-1.60
2022-12-15T03:32:23.256Z,-1.50
2022-12-15T03:34:51.215Z,-1.50
2022-12-15T03:37:26.788Z,-1.50
2022-12-15T03:39:55.263Z,-1.50
2022-12-15T03:42:44.369Z,-1.60
2022-12-15T03:45:13.016Z,-1.50
2022-12-15T03:47:47.640Z,-1.60
2022-12-15T03:50:20.174Z,-1.60
2022-12-15T03:53:00.884Z,-1.60
2022-12-15T03:55:32.717Z,-1.60
2022-12-15T03:58:04.549Z,-1.50
2022-12-15T04:00:39.395Z,-1.40
2022-12-15T04:03:16.788Z,-1.40
2022-12-15T04:05:50.339Z,-1.50
2022-12-15T04:08:26.915Z,-1.50
2022-12-15T04:11:00.735Z,-1.60
2022-12-15T04:13:32.507Z,-1.60
2022-12-15T04:16:06.661Z,-1.60
2022-12-15T04:18:39.374Z,-1.70
2022-12-15T04:21:09.790Z,-1.70
2022-12-15T04:23:59.064Z,-1.70
2022-12-15T04:26:44.765Z,-1.70
2022-12-15T04:29:30.753Z,-1.70
2022-12-15T04:32:17.173Z,-1.80
2022-12-15T04:35:11.637Z,-1.70
2022-12-15T04:38:06.461Z,-1.80
2022-12-15T04:41:00.103Z,-1.80
2022-12-15T04:43:53.707Z,-1.80
2022-12-15T04:46:44.040Z,-1.90
2022-12-15T04:49:32.751Z,-1.90
2022-12-15T04:52:28.680Z,-2.00
2022-12-15T04:55:16.530Z,-2.00
2022-12-15T04:58:03.802Z,-2.00
2022-12-15T05:00:53.057Z,-2.00
2022-12-15T05:03:53.942Z,-2.00
2022-12-15T05:06:46.585Z,-2.10
2022-12-15T05:09:32.525Z,-1.90
2022-12-15T05:12:22.104Z,-1.90
2022-12-15T05:15:12.914Z,-2.00
2022-12-15T05:17:59.727Z,-1.90
2022-12-15T05:20:46.594Z,-1.80
2022-12-15T05:23:38.908Z,-1.80
2022-12-15T05:26:39.588Z,-1.90
2022-12-15T05:29:26.540Z,-2.10
2022-12-15T05:31:57.127Z,-2.10
2022-12-15T05:34:33.910Z,-2.00
2022-12-15T05:37:02.640Z,-2.00
2022-12-15T05:39:31.439Z,-2.00
2022-12-15T05:42:05.209Z,-2.00
2022-12-15T05:44:32.433Z,-1.90
2022-12-15T05:47:06.356Z,-2.00
2022-12-15T05:49:37.027Z,-2.00
2022-12-15T05:52:07.836Z,-2.00
2022-12-15T05:54:37.045Z,-2.10
2022-12-15T05:57:10.189Z,-2.10
2022-12-15T05:59:42.692Z,-2.10
2022-12-15T06:02:13.807Z,-2.00
2022-12-15T06:04:47.726Z,-2.10
2022-12-15T06:07:19.436Z,-2.10
2022-12-15T06:09:53.946Z,-2.10
2022-12-15T06:12:27.118Z,-2.00
2022-12-15T06:15:00.642Z,-1.90
2022-12-15T06:17:33.112Z,-2.00
2022-12-15T06:20:04.911Z,-2.10
2022-12-15T06:22:50.106Z,-2.10
2022-12-15T06:25:18.056Z,-2.10
2022-12-15T06:27:50.625Z,-2.20
2022-12-15T06:30:23.543Z,-2.20
2022-12-15T06:32:56.519Z,-2.20
2022-12-15T06:35:24.690Z,-2.20
2022-12-15T06:37:52.992Z,-2.20
2022-12-15T06:40:22.177Z,-2.20
2022-12-15T06:42:58.783Z,-2.10
2022-12-15T06:45:35.674Z,-2.10
2022-12-15T06:48:08.446Z,-2.00
2022-12-15T06:50:51.089Z,-2.00
2022-12-15T06:53:21.708Z,-1.90
2022-12-15T06:55:49.573Z,-1.80
2022-12-15T06:58:29.891Z,-1.70
2022-12-15T07:01:11.108Z,-1.70
2022-12-15T07:03:45.676Z,-1.70
2022-12-15T07:06:17.350Z,-1.70
2022-12-15T07:08:56.748Z,-1.70
2022-12-15T07:11:25.284Z,-1.70
2022-12-15T07:13:53.941Z,-1.70
2022-12-15T07:16:27.363Z,-1.70
2022-12-15T07:18:58.029Z,-1.70
2022-12-15T07:21:25.853Z,-1.70
2022-12-15T07:23:57.296Z,-1.60
2022-12-15T07:26:27.552Z,-1.50
2022-12-15T07:28:57.938Z,-1.60
2022-12-15T07:31:32.969Z,-1.70
2022-12-15T07:34:00.877Z,-1.70
2022-12-15T07:36:33.398Z,-1.60
2022-12-15T07:39:02.002Z,-1.60
2022-12-15T07:41:35.571Z,-1.60
2022-12-15T07:44:14.782Z,-1.50
2022-12-15T07:46:49.487Z,-1.60
2022-12-15T07:49:18.766Z,-1.50
2022-12-15T07:51:52.044Z,-1.50
2022-12-15T07:54:29.498Z,-1.50
2022-12-15T07:56:57.786Z,-1.50
2022-12-15T07:59:29.030Z,-1.40
2022-12-15T08:02:04.843Z,-1.20
2022-12-15T08:04:40.837Z,-1.20
2022-12-15T08:07:09.301Z,-1.30
2022-12-15T08:09:41.175Z,-1.30
2022-12-15T08:12:10.806Z,-1.30
2022-12-15T08:14:50.097Z,-1.30
2022-12-15T08:17:25.948Z,-1.30
2022-12-15T08:20:07.969Z,-1.30
2022-12-15T08:22:45.728Z,-1.30
2022-12-15T08:25:19.010Z,-1.30
2022-12-15T08:27:52.849Z,-1.40
2022-12-15T08:30:20.563Z,-1.40
2022-12-15T08:32:51.912Z,-1.30
2022-12-15T08:35:54.681Z,-1.20
2022-12-15T08:38:11.768Z,-1.40
2022-12-15T08:40:43.571Z,-1.60
2022-12-15T08:43:13.442Z,-1.50
2022-12-15T08:45:44.627Z,-1.50
2022-12-15T08:48:18.690Z,-1.40
2022-12-15T08:51:01.716Z,-1.40
2022-12-15T08:53:32.496Z,-1.30
2022-12-15T08:56:14.772Z,-1.40
2022-12-15T08:59:04.496Z,-1.30
2022-12-15T09:01:40.074Z,-1.20
2022-12-15T09:04:09.740Z,-1.10
2022-12-15T09:06:43.299Z,-1.10
2022-12-15T09:09:14.451Z,-1.00
2022-12-15T09:11:51.920Z,-1.10
2022-12-15T09:14:30.586Z,-1.20
2022-12-15T09:17:06.454Z,-1.30
2022-12-15T09:19:39.101Z,-1.20
2022-12-15T09:22:16.062Z,-1.10
2022-12-15T09:24:49.304Z,-1.00
2022-12-15T09:27:21.097Z,-1.00
2022-12-15T09:29:53.692Z,-1.00
2022-12-15T09:32:27.641Z,-1.00
2022-12-15T09:35:04.952Z,-0.80
2022-12-15T09:37:33.806Z,-0.90
2022-12-15T09:40:03.062Z,-0.90
2022-12-15T09:42:36.703Z,-0.90
2022-12-15T09:45:18.213Z,-0.80
2022-12-15T09:48:04.803Z,-0.70
2022-12-15T09:50:46.264Z,-0.70
2022-12-15T09:53:45.408Z,-0.70
2022-12-15T09:56:25.546Z,-0.80
2022-12-15T09:59:07.336Z,-0.60
2022-12-15T10:01:43.188Z,-0.70
2022-12-15T10:04:14.863Z,-0.60
2022-12-15T10:06:55.413Z,-0.60
2022-12-15T10:09:28.988Z,-0.70
2022-12-15T10:11:57.766Z,-0.60
2022-12-15T10:14:54.627Z,-0.50
2022-12-15T10:18:02.580Z,-0.40
2022-12-15T10:20:32.969Z,-0.30
2022-12-15T10:23:17.810Z,-0.20
2022-12-15T10:25:53.314Z,-0.10
2022-12-15T10:28:51.348Z,-0.20
2022-12-15T10:31:38.471Z,-0.30
2022-12-15T10:34:23.148Z,-0.30
2022-12-15T10:36:53.371Z,-0.30
2022-12-15T10:39:24.241Z,-0.30
2022-12-15T10:42:13.728Z,-0.20
2022-12-15T10:44:50.653Z,-0.20
2022-12-15T10:47:21.023Z,-0.20
2022-12-15T10:49:52.249Z,-0.20
2022-12-15T10:52:35.647Z,-0.30
2022-12-15T10:55:36.236Z,-0.10
2022-12-15T10:58:17.443Z,-0.30
2022-12-15T11:00:50.858Z,-0.10
2022-12-15T11:03:41.692Z,-0.10
2022-12-15T11:06:21.816Z,0.10
2022-12-15T11:08:54.546Z,0.10
2022-12-15T11:11:47.250Z,-0.10
2022-12-15T11:14:43.257Z,-0.10
2022-12-15T11:17:15.795Z,0.00
2022-12-15T11:20:17.915Z,0.10
2022-12-15T11:23:05.222Z,0.00
2022-12-15T11:25:45.429Z,0.20
2022-12-15T11:28:21.963Z,0.10
2022-12-15T11:31:07.590Z,0.00
2022-12-15T11:33:37.533Z,0.10
2022-12-15T11:36:20.800Z,0.00
2022-12-15T11:38:57.497Z,0.00
2022-12-15T11:42:08.542Z,0.00
2022-12-15T11:44:54.595Z,-0.10
2022-12-15T11:47:45.006Z,-0.10
2022-12-15T11:50:39.652Z,0.10
2022-12-15T11:53:33.596Z,0.20
2022-12-15T11:56:18.335Z,0.10
2022-12-15T11:58:52.019Z,0.20
2022-12-15T12:01:31.541Z,0.00
2022-12-15T12:04:15.649Z,0.00
2022-12-15T12:07:07.197Z,-0.10
2022-12-15T12:09:48.665Z,-0.10
2022-12-15T12:12:28.881Z,-0.10
2022-12-15T12:15:13.957Z,-0.20
2022-12-15T12:18:00.249Z,-0.20
2022-12-15T12:20:47.712Z,-0.30
2022-12-15T12:23:24.591Z,-0.30
2022-12-15T12:26:28.384Z,-0.30
2022-12-15T12:29:30.084Z,-0.20
2022-12-15T12:32:40.489Z,-0.20
2022-12-15T12:35:30.490Z,-0.20
2022-12-15T12:38:07.114Z,-0.30
2022-12-15T12:40:43.057Z,-0.30
2022-12-15T12:43:38.317Z,-0.30
2022-12-15T12:46:22.960Z,-0.40
2022-12-15T12:49:02.237Z,-0.40
2022-12-15T12:51:31.056Z,-0.30
2022-12-15T12:53:59.544Z,-0.30
2022-12-15T12:56:48.666Z,-0.30
2022-12-15T12:59:32.987Z,-0.20
2022-12-15T13:02:21.620Z,-0.20
2022-12-15T13:05:05.855Z,-0.10
2022-12-15T13:07:35.044Z,-0.10
2022-12-15T13:10:07.838Z,0.00
2022-12-15T13:12:54.497Z,0.00
2022-12-15T13:15:29.904Z,0.10
2022-12-15T13:18:13.419Z,0.10
2022-12-15T13:20:44.198Z,0.00
2022-12-15T13:23:23.944Z,0.10
2022-12-15T13:25:56.589Z,0.10
2022-12-15T13:28:38.994Z,0.20
2022-12-15T13:31:19.114Z,0.10
2022-12-15T13:33:52.598Z,0.00
2022-12-15T13:36:41.203Z,-0.10
2022-12-15T13:39:17.223Z,-0.30
2022-12-15T13:44:57.345Z,-0.20
2022-12-15T13:47:29.209Z,-0.10
2022-12-15T13:50:07.573Z,-0.10
2022-12-15T13:53:16.540Z,-0.10
2022-12-15T13:55:42.567Z,-0.10
2022-12-15T13:58:09.787Z,-0.30
2022-12-15T14:00:39.417Z,-0.40
2022-12-15T14:03:14.837Z,-0.40
2022-12-15T14:05:50.021Z,-0.60
2022-12-15T14:08:20.460Z,-0.60
2022-12-15T14:10:59.997Z,-0.50
2022-12-15T14:13:36.192Z,-0.60
2022-12-15T14:16:14.619Z,-0.60
2022-12-15T14:18:45.582Z,-0.60
2022-12-15T14:21:24.102Z,-0.60
2022-12-15T14:24:28.836Z,-0.50
2022-12-15T14:26:41.841Z,-0.60
2022-12-15T14:29:10.542Z,-0.60
2022-12-15T14:31:40.794Z,-0.70
2022-12-15T14:34:42.148Z,-0.60
2022-12-15T14:37:20.096Z,-0.70
2022-12-15T14:39:53.446Z,-0.80
2022-12-15T14:42:24.942Z,-0.80
2022-12-15T14:45:00.505Z,-0.90
2022-12-15T14:47:35.565Z,-0.80
2022-12-15T14:50:11.324Z,-0.80
2022-12-15T14:52:43.874Z,-0.80
2022-12-15T14:55:35.369Z,-0.80
2022-12-15T14:58:22.647Z,-0.70
2022-12-15T15:00:55.071Z,-0.60
2022-12-15T15:03:34.662Z,-0.60
2022-12-15T15:06:17.805Z,-0.50
2022-12-15T15:08:51.272Z,-0.60
2022-12-15T15:11:34.067Z,-0.80
2022-12-15T15:14:18.803Z,-0.70
2022-12-15T15:17:29.030Z,-0.60
2022-12-15T15:20:02.518Z,-0.60
2022-12-15T15:22:45.241Z,-0.60
2022-12-15T15:25:39.394Z,-0.60
2022-12-15T15:28:20.676Z,-0.60
2022-12-15T15:30:56.575Z,-0.50
2022-12-15T15:33:27.491Z,-0.50
2022-12-15T15:36:00.741Z,-0.50
2022-12-15T15:38:41.544Z,-0.50
2022-12-15T15:41:17.010Z,-0.50
2022-12-15T15:43:49.249Z,-0.50
2022-12-15T15:46:20.872Z,-0.60
2022-12-15T15:49:03.992Z,-0.60
2022-12-15T15:51:37.839Z,-0.50
2022-12-15T15:54:10.951Z,-0.60
2022-12-15T15:56:41.634Z,-0.70
2022-12-15T15:59:17.650Z,-0.70
2022-12-15T16:01:57.823Z,-0.80
2022-12-15T16:04:26.215Z,-0.70
2022-12-15T16:06:53.825Z,-0.60
2022-12-15T16:09:21.377Z,-0.60
2022-12-15T16:11:49.409Z,-0.50
2022-12-15T16:14:18.230Z,-0.60
2022-12-15T16:16:46.043Z,-0.70
2022-12-15T16:19:13.996Z,-0.60
2022-12-15T16:21:42.841Z,-0.80
2022-12-15T16:24:18.539Z,-0.80
2022-12-15T16:26:51.626Z,-0.70
2022-12-15T16:29:27.938Z,-0.70
2022-12-15T16:32:03.816Z,-0.70
2022-12-15T16:34:35.021Z,-0.80
2022-12-15T16:37:34.806Z,-0.70
2022-12-15T16:40:28.420Z,-0.70
2022-12-15T16:43:19.819Z,-0.70
2022-12-15T16:45:54.390Z,-0.70
2022-12-15T16:48:28.221Z,-0.60
2022-12-15T16:51:06.505Z,-0.50
2022-12-15T16:53:44.241Z,-0.50
2022-12-15T16:56:18.140Z,-0.50
2022-12-15T16:58:48.951Z,-0.50
2022-12-15T17:01:26.871Z,-0.60
2022-12-15T17:03:55.236Z,-0.60
2022-12-15T17:06:28.618Z,-0.60
2022-12-15T17:09:00.032Z,-0.50
2022-12-15T17:11:33.810Z,-0.50
2022-12-15T17:14:07.537Z,-0.50
2022-12-15T17:16:43.092Z,-0.60
2022-12-15T17:19:14.991Z,-0.70
2022-12-15T17:22:02.103Z,-0.70
2022-12-15T17:24:33.478Z,-0.80
2022-12-15T17:27:11.709Z,-0.80
2022-12-15T17:29:43.322Z,-0.70
2022-12-15T17:32:15.460Z,-0.70
2022-12-15T17:34:43.350Z,-0.80
2022-12-15T17:37:14.398Z,-0.80
2022-12-15T17:39:53.656Z,-0.70
2022-12-15T17:42:34.515Z,-0.60
2022-12-15T17:45:35.898Z,-0.70
2022-12-15T17:48:13.070Z,-0.60
2022-12-15T17:50:41.769Z,-0.70
2022-12-15T17:53:12.381Z,-0.80
2022-12-15T17:56:04.323Z,-0.80
2022-12-15T17:58:35.476Z,-0.90
2022-12-15T18:01:11.694Z,-0.80
2022-12-15T18:03:47.989Z,-0.90
2022-12-15T18:06:18.279Z,-0.90
2022-12-15T18:08:48.445Z,-0.90
2022-12-15T18:11:17.657Z,-0.80
2022-12-15T18:13:45.907Z,-0.70
2022-12-15T18:16:19.641Z,-0.80
2022-12-15T18:19:00.581Z,-0.80
2022-12-15T18:21:35.354Z,-0.90
2022-12-15T18:24:13.976Z,-1.10
2022-12-15T18:26:45.381Z,-1.10
2022-12-15T18:29:24.592Z,-1.20
2022-12-15T18:31:59.573Z,-1.20
2022-12-15T18:34:27.582Z,-1.30
2022-12-15T18:36:59.143Z,-1.40
2022-12-15T18:39:33.003Z,-1.50
2022-12-15T18:42:19.927Z,-1.70
2022-12-15T18:44:51.709Z,-1.60
2022-12-15T18:47:24.068Z,-1.70
2022-12-15T18:49:57.193Z,-1.80
2022-12-15T18:52:31.449Z,-1.90
2022-12-15T18:55:07.520Z,-1.90
2022-12-15T18:57:37.088Z,-2.10
2022-12-15T19:00:18.335Z,-2.20
2022-12-15T19:02:52.129Z,-2.10
2022-12-15T19:05:33.503Z,-2.20
2022-12-15T19:08:25.684Z,-2.40
2022-12-15T19:11:20.561Z,-2.40
2022-12-15T19:14:00.564Z,-2.40
2022-12-15T19:16:54.977Z,-2.40
2022-12-15T19:19:48.540Z,-2.50
2022-12-15T19:22:30.249Z,-2.50
2022-12-15T19:25:06.330Z,-2.50
2022-12-15T19:27:37.365Z,-2.60
2022-12-15T19:30:20.343Z,-2.70
2022-12-15T19:32:52.221Z,-2.70
2022-12-15T19:35:32.075Z,-2.60
2022-12-15T19:41:56.013Z,-3.00
2022-12-15T19:44:31.203Z,-3.30
2022-12-15T19:46:59.844Z,-3.30
2022-12-15T19:49:40.867Z,-3.30
2022-12-15T19:52:19.761Z,-3.30
2022-12-15T19:54:52.887Z,-3.40
2022-12-15T19:57:25.270Z,-3.50
2022-12-15T20:00:01.229Z,-3.50
2022-12-15T20:02:33.153Z,-3.40
2022-12-15T20:05:04.441Z,-3.30
2022-12-15T20:07:32.914Z,-3.40
2022-12-15T20:10:31.308Z,-3.40
2022-12-15T20:13:07.091Z,-3.50
2022-12-15T20:15:40.713Z,-3.80
2022-12-15T20:18:10.874Z,-3.80
2022-12-15T20:20:42.403Z,-3.70
2022-12-15T20:23:23.924Z,-3.70
2022-12-15T20:25:56.759Z,-3.80
2022-12-15T20:28:33.734Z,-3.90
2022-12-15T20:31:28.197Z,-3.90
2022-12-15T20:34:03.858Z,-3.70
2022-12-15T20:36:40.079Z,-3.70
2022-12-15T20:39:36.961Z,-3.80
2022-12-15T20:42:14.226Z,-3.80
2022-12-15T20:44:42.143Z,-3.70
2022-12-15T20:47:24.637Z,-3.90
2022-12-15T20:49:57.699Z,-3.90
2022-12-15T20:52:26.887Z,-4.00
2022-12-15T20:54:59.238Z,-4.00
2022-12-15T20:57:26.422Z,-4.00
2022-12-15T20:59:56.140Z,-4.00
2022-12-15T21:02:24.449Z,-4.00
2022-12-15T21:04:52.214Z,-4.00
2022-12-15T21:07:19.806Z,-4.00
2022-12-15T21:09:47.510Z,-3.80
2022-12-15T21:12:21.396Z,-3.70
2022-12-15T21:14:51.057Z,-3.70
2022-12-15T21:17:21.300Z,-3.50
2022-12-15T21:19:49.401Z,-3.40
2022-12-15T21:22:26.762Z,-3.40
2022-12-15T21:25:00.424Z,-3.40
2022-12-15T21:27:30.209Z,-3.30
2022-12-15T21:29:59.778Z,-3.20
2022-12-15T21:32:31.177Z,-3.10
2022-12-15T21:35:01.747Z,-3.00
2022-12-15T21:37:30.477Z,-2.90
2022-12-15T21:39:59.492Z,-2.90
2022-12-15T21:42:27.109Z,-2.90
2022-12-15T21:44:55.179Z,-2.80
2022-12-15T21:47:48.918Z,-2.80
2022-12-15T21:50:17.967Z,-2.80
2022-12-15T21:52:46.631Z,-2.70
2022-12-15T21:55:22.763Z,-2.60
2022-12-15T21:57:50.144Z,-2.70
2022-12-15T22:00:20.383Z,-2.70
2022-12-15T22:02:53.476Z,-2.60
2022-12-15T22:05:25.152Z,-2.60
2022-12-15T22:07:52.561Z,-2.60
2022-12-15T22:10:20.337Z,-2.50
2022-12-15T22:12:57.565Z,-2.50
2022-12-15T22:15:29.536Z,-2.50
2022-12-15T22:17:56.882Z,-2.60
2022-12-15T22:20:26.513Z,-2.60
2022-12-15T22:22:56.090Z,-2.60
2022-12-15T22:25:27.616Z,-2.50
2022-12-15T22:27:58.822Z,-2.60
2022-12-15T22:30:28.829Z,-2.60
2022-12-15T22:33:00.394Z,-2.50
2022-12-15T22:35:27.908Z,-2.40
2022-12-15T22:37:57.309Z,-2.40
2022-12-15T22:40:25.266Z,-2.40
2022-12-15T22:42:57.375Z,-2.40
2022-12-15T22:45:27.464Z,-2.40
2022-12-15T22:47:59.295Z,-2.30
2022-12-15T22:50:35.778Z,-2.30
2022-12-15T22:53:03.181Z,-2.30
2022-12-15T22:55:35.532Z,-2.30
2022-12-15T22:58:08.923Z,-2.20
2022-12-15T23:00:38.841Z,-2.20
2022-12-15T23:03:11.372Z,-2.30
2022-12-15T23:05:44.701Z,-2.20
2022-12-15T23:08:17.140Z,-2.20
2022-12-15T23:11:07.971Z,-2.20
2022-12-15T23:13:35.779Z,-2.30
2022-12-15T23:16:19.331Z,-2.20
2022-12-15T23:18:48.322Z,-2.20
2022-12-15T23:21:18.976Z,-2.20
2022-12-15T23:23:46.382Z,-2.10
2022-12-15T23:26:17.174Z,-2.10
2022-12-15T23:28:44.796Z,-2.20
2022-12-15T23:31:16.968Z,-2.20
2022-12-15T23:33:44.465Z,-2.10
2022-12-15T23:36:12.638Z,-2.10
2022-12-15T23:38:44.930Z,-2.10
2022-12-15T23:41:17.189Z,-2.10
2022-12-15T23:43:48.949Z,-2.10
2022-12-15T23:46:21.372Z,-2.10
2022-12-15T23:48:48.565Z,-2.20
2022-12-15T23:51:17.796Z,-2.10
2022-12-15T23:53:46.965Z,-2.10
2022-12-15T23:56:18.523Z,-2.20
2022-12-15T23:58:55.372Z,-2.20
